Itapemirim, Brazil
Current Conditions -  °F | °C
As of 11:00 PM on Monday 26 Jan 2015 (Local Time) from SBCP Reporting Station
Clear Clear  
Wind Chill: 81°   Ceiling: Unl
Heat Index: 86°   Visibility: 6mi
Dew Point: 75°   Wind: 12mph
Humidity: 84%   Direction: 70°ENE
Pressure: 29.91"   Gusts: NA
Location:  21.01°S, 40.83°W
Report Text: SBCP 270100Z 07010KT CAVOK 27/24 Q1013
Loading
Personal Weather Stations






























Interactive Weather Map New forecast layout! Learn more

10-Day Weather Forecast

Advertisements
Track Severe Weather on mobile